sensor_id;sensor_type;location;lat;lon;timestamp;P1;durP1;ratioP1;P2;durP2;ratioP2
22287;SDS011;11312;51.464;6.968;2023-03-18T00:02:18;2.47;;;1.75;;
22287;SDS011;11312;51.464;6.968;2023-03-18T00:04:44;2.70;;;1.40;;
22287;SDS011;11312;51.464;6.968;2023-03-18T00:07:10;3.80;;;1.85;;
22287;SDS011;11312;51.464;6.968;2023-03-18T00:09:36;2.72;;;1.60;;
22287;SDS011;11312;51.464;6.968;2023-03-18T00:12:02;3.10;;;1.58;;
22287;SDS011;11312;51.464;6.968;2023-03-18T00:14:29;3.85;;;2.10;;
22287;SDS011;11312;51.464;6.968;2023-03-18T00:16:55;2.25;;;1.40;;
22287;SDS011;11312;51.464;6.968;2023-03-18T00:19:21;2.20;;;1.40;;
22287;SDS011;11312;51.464;6.968;2023-03-18T00:21:48;1.88;;;1.30;;
22287;SDS011;11312;51.464;6.968;2023-03-18T00:24:14;3.40;;;1.67;;
22287;SDS011;11312;51.464;6.968;2023-03-18T00:26:41;3.40;;;1.77;;
22287;SDS011;11312;51.464;6.968;2023-03-18T00:29:08;3.65;;;1.83;;
22287;SDS011;11312;51.464;6.968;2023-03-18T00:31:34;2.45;;;1.40;;
22287;SDS011;11312;51.464;6.968;2023-03-18T00:34:02;1.90;;;1.38;;
22287;SDS011;11312;51.464;6.968;2023-03-18T00:36:28;2.03;;;1.35;;
22287;SDS011;11312;51.464;6.968;2023-03-18T00:38:55;15.70;;;2.67;;
22287;SDS011;11312;51.464;6.968;2023-03-18T00:41:30;4.35;;;1.80;;
22287;SDS011;11312;51.464;6.968;2023-03-18T00:44:01;1.75;;;1.33;;
22287;SDS011;11312;51.464;6.968;2023-03-18T00:46:28;2.67;;;1.85;;
22287;SDS011;11312;51.464;6.968;2023-03-18T00:48:59;3.50;;;1.80;;
22287;SDS011;11312;51.464;6.968;2023-03-18T00:51:27;2.40;;;1.45;;
22287;SDS011;11312;51.464;6.968;2023-03-18T00:53:56;3.55;;;1.67;;
22287;SDS011;11312;51.464;6.968;2023-03-18T00:56:25;3.42;;;1.63;;
22287;SDS011;11312;51.464;6.968;2023-03-18T00:58:53;3.45;;;1.92;;
22287;SDS011;11312;51.464;6.968;2023-03-18T01:01:19;7.63;;;2.58;;
22287;SDS011;11312;51.464;6.968;2023-03-18T01:03:45;2.88;;;1.80;;
22287;SDS011;11312;51.464;6.968;2023-03-18T01:06:14;2.85;;;1.60;;
22287;SDS011;11312;51.464;6.968;2023-03-18T01:08:42;2.97;;;1.60;;
22287;SDS011;11312;51.464;6.968;2023-03-18T01:11:09;1.90;;;1.33;;
22287;SDS011;11312;51.464;6.968;2023-03-18T01:13:35;2.30;;;1.65;;
22287;SDS011;11312;51.464;6.968;2023-03-18T01:16:02;3.00;;;1.50;;
22287;SDS011;11312;51.464;6.968;2023-03-18T01:18:29;2.97;;;1.55;;
22287;SDS011;11312;51.464;6.968;2023-03-18T01:20:55;1.90;;;1.30;;
22287;SDS011;11312;51.464;6.968;2023-03-18T01:23:22;1.73;;;1.30;;
22287;SDS011;11312;51.464;6.968;2023-03-18T01:25:48;1.92;;;1.38;;
22287;SDS011;11312;51.464;6.968;2023-03-18T01:28:15;2.45;;;1.42;;
22287;SDS011;11312;51.464;6.968;2023-03-18T01:30:41;3.40;;;1.70;;
22287;SDS011;11312;51.464;6.968;2023-03-18T01:33:07;2.38;;;1.40;;
22287;SDS011;11312;51.464;6.968;2023-03-18T01:35:33;2.08;;;1.40;;
22287;SDS011;11312;51.464;6.968;2023-03-18T01:38:01;5.88;;;2.05;;
22287;SDS011;11312;51.464;6.968;2023-03-18T01:40:29;2.10;;;1.35;;
22287;SDS011;11312;51.464;6.968;2023-03-18T01:42:57;3.83;;;1.83;;
22287;SDS011;11312;51.464;6.968;2023-03-18T01:45:29;3.03;;;1.80;;
22287;SDS011;11312;51.464;6.968;2023-03-18T01:47:55;3.67;;;1.67;;
22287;SDS011;11312;51.464;6.968;2023-03-18T01:50:26;3.90;;;1.88;;
22287;SDS011;11312;51.464;6.968;2023-03-18T01:53:02;1.95;;;1.40;;
22287;SDS011;11312;51.464;6.968;2023-03-18T01:55:31;3.08;;;1.67;;
22287;SDS011;11312;51.464;6.968;2023-03-18T01:57:58;3.03;;;1.80;;
22287;SDS011;11312;51.464;6.968;2023-03-18T02:00:31;5.50;;;1.98;;
22287;SDS011;11312;51.464;6.968;2023-03-18T02:02:57;1.42;;;1.20;;
22287;SDS011;11312;51.464;6.968;2023-03-18T02:05:25;2.35;;;1.42;;
22287;SDS011;11312;51.464;6.968;2023-03-18T02:07:52;1.90;;;1.48;;
22287;SDS011;11312;51.464;6.968;2023-03-18T02:10:19;1.73;;;1.30;;
22287;SDS011;11312;51.464;6.968;2023-03-18T02:12:50;2.38;;;1.40;;
22287;SDS011;11312;51.464;6.968;2023-03-18T02:15:20;2.15;;;1.40;;
22287;SDS011;11312;51.464;6.968;2023-03-18T02:17:51;2.13;;;1.40;;
22287;SDS011;11312;51.464;6.968;2023-03-18T02:23:06;3.05;;;1.52;;
22287;SDS011;11312;51.464;6.968;2023-03-18T02:25:51;1.60;;;1.33;;
22287;SDS011;11312;51.464;6.968;2023-03-18T02:28:29;1.30;;;1.20;;
22287;SDS011;11312;51.464;6.968;2023-03-18T02:30:57;1.70;;;1.30;;
22287;SDS011;11312;51.464;6.968;2023-03-18T02:33:28;2.10;;;1.33;;
22287;SDS011;11312;51.464;6.968;2023-03-18T02:36:01;1.77;;;1.40;;
22287;SDS011;11312;51.464;6.968;2023-03-18T02:38:30;1.30;;;1.20;;
22287;SDS011;11312;51.464;6.968;2023-03-18T02:40:56;2.47;;;1.40;;
22287;SDS011;11312;51.464;6.968;2023-03-18T02:43:25;2.15;;;1.42;;
22287;SDS011;11312;51.464;6.968;2023-03-18T02:48:38;3.05;;;1.65;;
22287;SDS011;11312;51.464;6.968;2023-03-18T02:51:06;1.83;;;1.30;;
22287;SDS011;11312;51.464;6.968;2023-03-18T02:53:33;2.25;;;1.45;;
22287;SDS011;11312;51.464;6.968;2023-03-18T02:55:59;2.50;;;1.45;;
22287;SDS011;11312;51.464;6.968;2023-03-18T02:58:26;2.25;;;1.50;;
22287;SDS011;11312;51.464;6.968;2023-03-18T03:00:51;2.63;;;1.52;;
22287;SDS011;11312;51.464;6.968;2023-03-18T03:03:17;2.33;;;1.42;;
22287;SDS011;11312;51.464;6.968;2023-03-18T03:05:43;1.55;;;1.30;;
22287;SDS011;11312;51.464;6.968;2023-03-18T03:08:08;3.08;;;1.60;;
22287;SDS011;11312;51.464;6.968;2023-03-18T03:10:34;1.60;;;1.27;;
22287;SDS011;11312;51.464;6.968;2023-03-18T03:13:00;1.92;;;1.30;;
22287;SDS011;11312;51.464;6.968;2023-03-18T03:15:26;2.08;;;1.33;;
22287;SDS011;11312;51.464;6.968;2023-03-18T03:17:52;2.15;;;1.40;;
22287;SDS011;11312;51.464;6.968;2023-03-18T03:20:18;2.33;;;1.40;;
22287;SDS011;11312;51.464;6.968;2023-03-18T03:22:45;2.25;;;1.40;;
22287;SDS011;11312;51.464;6.968;2023-03-18T03:25:11;2.65;;;1.35;;
22287;SDS011;11312;51.464;6.968;2023-03-18T03:27:37;2.10;;;1.35;;
22287;SDS011;11312;51.464;6.968;2023-03-18T03:30:04;7.35;;;2.65;;
22287;SDS011;11312;51.464;6.968;2023-03-18T03:32:31;2.35;;;1.45;;
22287;SDS011;11312;51.464;6.968;2023-03-18T03:34:57;4.00;;;2.28;;
22287;SDS011;11312;51.464;6.968;2023-03-18T03:37:23;2.20;;;1.45;;
22287;SDS011;11312;51.464;6.968;2023-03-18T03:39:48;2.80;;;1.67;;
22287;SDS011;11312;51.464;6.968;2023-03-18T03:42:14;2.60;;;1.60;;
22287;SDS011;11312;51.464;6.968;2023-03-18T03:44:40;3.78;;;1.73;;
22287;SDS011;11312;51.464;6.968;2023-03-18T03:47:06;2.35;;;1.40;;
22287;SDS011;11312;51.464;6.968;2023-03-18T03:49:32;2.70;;;1.50;;
22287;SDS011;11312;51.464;6.968;2023-03-18T03:51:58;4.63;;;2.20;;
22287;SDS011;11312;51.464;6.968;2023-03-18T03:54:23;4.72;;;2.00;;
22287;SDS011;11312;51.464;6.968;2023-03-18T03:56:50;2.42;;;1.50;;
22287;SDS011;11312;51.464;6.968;2023-03-18T03:59:16;3.47;;;1.95;;
22287;SDS011;11312;51.464;6.968;2023-03-18T04:01:42;2.58;;;1.40;;
22287;SDS011;11312;51.464;6.968;2023-03-18T04:04:08;2.42;;;1.52;;
22287;SDS011;11312;51.464;6.968;2023-03-18T04:06:34;2.70;;;1.58;;
22287;SDS011;11312;51.464;6.968;2023-03-18T04:09:00;2.78;;;1.60;;
22287;SDS011;11312;51.464;6.968;2023-03-18T04:11:28;2.28;;;1.40;;
22287;SDS011;11312;51.464;6.968;2023-03-18T04:13:54;2.10;;;1.38;;
22287;SDS011;11312;51.464;6.968;2023-03-18T04:16:20;3.05;;;1.55;;
22287;SDS011;11312;51.464;6.968;2023-03-18T04:18:46;3.22;;;1.98;;
22287;SDS011;11312;51.464;6.968;2023-03-18T04:21:11;3.17;;;1.98;;
22287;SDS011;11312;51.464;6.968;2023-03-18T04:23:37;2.70;;;1.55;;
22287;SDS011;11312;51.464;6.968;2023-03-18T04:26:03;3.70;;;1.60;;
22287;SDS011;11312;51.464;6.968;2023-03-18T04:28:29;3.25;;;1.60;;
22287;SDS011;11312;51.464;6.968;2023-03-18T04:30:55;2.33;;;1.42;;
22287;SDS011;11312;51.464;6.968;2023-03-18T04:33:22;3.63;;;1.70;;
22287;SDS011;11312;51.464;6.968;2023-03-18T04:35:47;5.57;;;2.72;;
22287;SDS011;11312;51.464;6.968;2023-03-18T04:38:13;3.38;;;1.80;;
22287;SDS011;11312;51.464;6.968;2023-03-18T04:40:39;9.25;;;2.72;;
22287;SDS011;11312;51.464;6.968;2023-03-18T04:43:05;6.65;;;2.55;;
22287;SDS011;11312;51.464;6.968;2023-03-18T04:45:30;2.90;;;1.60;;
22287;SDS011;11312;51.464;6.968;2023-03-18T04:47:56;2.42;;;1.50;;
22287;SDS011;11312;51.464;6.968;2023-03-18T04:50:22;2.70;;;1.50;;
22287;SDS011;11312;51.464;6.968;2023-03-18T04:52:48;4.53;;;2.65;;
22287;SDS011;11312;51.464;6.968;2023-03-18T04:55:14;2.60;;;1.50;;
22287;SDS011;11312;51.464;6.968;2023-03-18T04:57:41;2.60;;;1.40;;
22287;SDS011;11312;51.464;6.968;2023-03-18T05:00:09;2.92;;;1.58;;
22287;SDS011;11312;51.464;6.968;2023-03-18T05:02:38;2.83;;;1.50;;
22287;SDS011;11312;51.464;6.968;2023-03-18T05:05:05;4.03;;;1.85;;
22287;SDS011;11312;51.464;6.968;2023-03-18T05:07:31;2.65;;;1.50;;
22287;SDS011;11312;51.464;6.968;2023-03-18T05:09:57;3.42;;;1.83;;
22287;SDS011;11312;51.464;6.968;2023-03-18T05:12:23;3.90;;;1.77;;
22287;SDS011;11312;51.464;6.968;2023-03-18T05:14:49;2.58;;;1.63;;
22287;SDS011;11312;51.464;6.968;2023-03-18T05:17:15;2.17;;;1.40;;
22287;SDS011;11312;51.464;6.968;2023-03-18T05:19:44;3.38;;;1.83;;
22287;SDS011;11312;51.464;6.968;2023-03-18T05:22:12;7.88;;;2.67;;
22287;SDS011;11312;51.464;6.968;2023-03-18T05:24:39;3.55;;;1.90;;
22287;SDS011;11312;51.464;6.968;2023-03-18T05:27:05;4.28;;;1.85;;
22287;SDS011;11312;51.464;6.968;2023-03-18T05:29:31;2.65;;;1.50;;
22287;SDS011;11312;51.464;6.968;2023-03-18T05:31:57;2.42;;;1.50;;
22287;SDS011;11312;51.464;6.968;2023-03-18T05:34:23;2.15;;;1.40;;
22287;SDS011;11312;51.464;6.968;2023-03-18T05:36:49;2.72;;;1.52;;
22287;SDS011;11312;51.464;6.968;2023-03-18T05:39:15;3.83;;;1.88;;
22287;SDS011;11312;51.464;6.968;2023-03-18T05:41:41;4.95;;;1.90;;
22287;SDS011;11312;51.464;6.968;2023-03-18T05:44:07;5.85;;;2.00;;
22287;SDS011;11312;51.464;6.968;2023-03-18T05:46:32;3.30;;;1.50;;
22287;SDS011;11312;51.464;6.968;2023-03-18T05:48:58;4.47;;;2.05;;
22287;SDS011;11312;51.464;6.968;2023-03-18T05:51:23;1.58;;;1.30;;
22287;SDS011;11312;51.464;6.968;2023-03-18T05:53:50;2.38;;;1.48;;
22287;SDS011;11312;51.464;6.968;2023-03-18T05:56:16;7.63;;;2.10;;
22287;SDS011;11312;51.464;6.968;2023-03-18T05:58:42;2.92;;;1.63;;
22287;SDS011;11312;51.464;6.968;2023-03-18T06:01:08;4.35;;;2.05;;
22287;SDS011;11312;51.464;6.968;2023-03-18T06:03:35;3.28;;;1.90;;
22287;SDS011;11312;51.464;6.968;2023-03-18T06:06:01;3.17;;;1.58;;
22287;SDS011;11312;51.464;6.968;2023-03-18T06:08:27;2.20;;;1.40;;
22287;SDS011;11312;51.464;6.968;2023-03-18T06:10:53;3.67;;;1.75;;
22287;SDS011;11312;51.464;6.968;2023-03-18T06:13:19;2.95;;;1.70;;
22287;SDS011;11312;51.464;6.968;2023-03-18T06:15:45;1.98;;;1.35;;
22287;SDS011;11312;51.464;6.968;2023-03-18T06:18:11;13.95;;;2.60;;
22287;SDS011;11312;51.464;6.968;2023-03-18T06:20:37;2.30;;;1.40;;
22287;SDS011;11312;51.464;6.968;2023-03-18T06:23:02;2.55;;;1.40;;
22287;SDS011;11312;51.464;6.968;2023-03-18T06:25:29;3.17;;;1.85;;
22287;SDS011;11312;51.464;6.968;2023-03-18T06:27:55;3.53;;;1.63;;
22287;SDS011;11312;51.464;6.968;2023-03-18T06:30:21;3.45;;;1.77;;
22287;SDS011;11312;51.464;6.968;2023-03-18T06:32:47;2.10;;;1.38;;
22287;SDS011;11312;51.464;6.968;2023-03-18T06:35:13;2.88;;;1.55;;
22287;SDS011;11312;51.464;6.968;2023-03-18T06:37:40;4.60;;;2.03;;
22287;SDS011;11312;51.464;6.968;2023-03-18T06:40:07;3.45;;;1.73;;
22287;SDS011;11312;51.464;6.968;2023-03-18T06:42:34;3.00;;;1.55;;
22287;SDS011;11312;51.464;6.968;2023-03-18T06:45:00;4.38;;;1.98;;
22287;SDS011;11312;51.464;6.968;2023-03-18T06:47:26;3.40;;;1.73;;
22287;SDS011;11312;51.464;6.968;2023-03-18T06:49:52;3.85;;;1.95;;
22287;SDS011;11312;51.464;6.968;2023-03-18T06:52:18;2.95;;;1.88;;
22287;SDS011;11312;51.464;6.968;2023-03-18T06:54:44;3.63;;;2.00;;
22287;SDS011;11312;51.464;6.968;2023-03-18T06:57:10;4.30;;;2.05;;
22287;SDS011;11312;51.464;6.968;2023-03-18T06:59:36;3.22;;;1.60;;
22287;SDS011;11312;51.464;6.968;2023-03-18T07:02:02;2.90;;;1.60;;
22287;SDS011;11312;51.464;6.968;2023-03-18T07:04:29;2.55;;;1.45;;
22287;SDS011;11312;51.464;6.968;2023-03-18T07:06:57;2.90;;;1.80;;
22287;SDS011;11312;51.464;6.968;2023-03-18T07:09:24;3.70;;;1.63;;
22287;SDS011;11312;51.464;6.968;2023-03-18T07:11:50;2.97;;;1.65;;
22287;SDS011;11312;51.464;6.968;2023-03-18T07:14:17;2.88;;;1.75;;
22287;SDS011;11312;51.464;6.968;2023-03-18T07:16:43;3.58;;;1.80;;
22287;SDS011;11312;51.464;6.968;2023-03-18T07:19:10;2.70;;;1.60;;
22287;SDS011;11312;51.464;6.968;2023-03-18T07:21:36;3.20;;;1.80;;
22287;SDS011;11312;51.464;6.968;2023-03-18T07:24:01;2.95;;;1.55;;
22287;SDS011;11312;51.464;6.968;2023-03-18T07:26:28;2.15;;;1.40;;
22287;SDS011;11312;51.464;6.968;2023-03-18T07:28:54;2.80;;;1.63;;
22287;SDS011;11312;51.464;6.968;2023-03-18T07:31:20;2.25;;;1.40;;
22287;SDS011;11312;51.464;6.968;2023-03-18T07:33:45;3.35;;;1.67;;
22287;SDS011;11312;51.464;6.968;2023-03-18T07:36:11;3.05;;;1.45;;
22287;SDS011;11312;51.464;6.968;2023-03-18T07:38:37;1.90;;;1.38;;
22287;SDS011;11312;51.464;6.968;2023-03-18T07:41:03;1.77;;;1.30;;
22287;SDS011;11312;51.464;6.968;2023-03-18T07:43:30;3.88;;;1.77;;
22287;SDS011;11312;51.464;6.968;2023-03-18T07:45:55;4.28;;;1.75;;
22287;SDS011;11312;51.464;6.968;2023-03-18T07:48:22;3.08;;;1.67;;
22287;SDS011;11312;51.464;6.968;2023-03-18T07:50:48;1.80;;;1.20;;
22287;SDS011;11312;51.464;6.968;2023-03-18T07:53:14;1.50;;;1.10;;
22287;SDS011;11312;51.464;6.968;2023-03-18T07:55:39;2.45;;;1.50;;
22287;SDS011;11312;51.464;6.968;2023-03-18T07:58:05;1.55;;;1.10;;
22287;SDS011;11312;51.464;6.968;2023-03-18T08:00:32;8.63;;;1.50;;
22287;SDS011;11312;51.464;6.968;2023-03-18T08:02:59;1.65;;;1.30;;
22287;SDS011;11312;51.464;6.968;2023-03-18T08:05:25;2.53;;;1.48;;
22287;SDS011;11312;51.464;6.968;2023-03-18T08:07:51;2.08;;;1.30;;
22287;SDS011;11312;51.464;6.968;2023-03-18T08:10:17;2.55;;;1.80;;
22287;SDS011;11312;51.464;6.968;2023-03-18T08:12:44;3.72;;;2.03;;
22287;SDS011;11312;51.464;6.968;2023-03-18T08:15:10;2.00;;;1.25;;
22287;SDS011;11312;51.464;6.968;2023-03-18T08:17:36;0.90;;;0.90;;
22287;SDS011;11312;51.464;6.968;2023-03-18T08:20:03;0.95;;;0.95;;
22287;SDS011;11312;51.464;6.968;2023-03-18T08:22:30;0.90;;;0.90;;
22287;SDS011;11312;51.464;6.968;2023-03-18T08:24:55;6.10;;;2.35;;
22287;SDS011;11312;51.464;6.968;2023-03-18T08:37:05;1.60;;;1.20;;
22287;SDS011;11312;51.464;6.968;2023-03-18T08:39:32;1.08;;;1.00;;
22287;SDS011;11312;51.464;6.968;2023-03-18T08:41:58;1.92;;;1.20;;
22287;SDS011;11312;51.464;6.968;2023-03-18T08:44:23;1.98;;;1.25;;
22287;SDS011;11312;51.464;6.968;2023-03-18T08:46:50;0.90;;;0.90;;
22287;SDS011;11312;51.464;6.968;2023-03-18T08:49:15;0.80;;;0.80;;
22287;SDS011;11312;51.464;6.968;2023-03-18T08:51:41;0.98;;;0.93;;
22287;SDS011;11312;51.464;6.968;2023-03-18T08:54:07;1.05;;;1.00;;
22287;SDS011;11312;51.464;6.968;2023-03-18T08:56:32;1.58;;;1.17;;
22287;SDS011;11312;51.464;6.968;2023-03-18T09:01:24;7.25;;;1.42;;
22287;SDS011;11312;51.464;6.968;2023-03-18T09:03:49;1.40;;;1.10;;
22287;SDS011;11312;51.464;6.968;2023-03-18T09:06:15;1.70;;;1.25;;
22287;SDS011;11312;51.464;6.968;2023-03-18T09:08:42;1.38;;;1.10;;
22287;SDS011;11312;51.464;6.968;2023-03-18T09:11:09;3.03;;;1.75;;
22287;SDS011;11312;51.464;6.968;2023-03-18T09:13:35;1.90;;;1.33;;
22287;SDS011;11312;51.464;6.968;2023-03-18T09:16:02;1.10;;;1.00;;
22287;SDS011;11312;51.464;6.968;2023-03-18T09:20:54;1.17;;;1.00;;
22287;SDS011;11312;51.464;6.968;2023-03-18T09:25:46;0.70;;;0.70;;
22287;SDS011;11312;51.464;6.968;2023-03-18T09:28:12;2.17;;;1.10;;
22287;SDS011;11312;51.464;6.968;2023-03-18T09:30:38;0.90;;;0.85;;
22287;SDS011;11312;51.464;6.968;2023-03-18T09:33:04;1.40;;;0.90;;
22287;SDS011;11312;51.464;6.968;2023-03-18T09:35:30;1.08;;;0.93;;
22287;SDS011;11312;51.464;6.968;2023-03-18T09:37:57;3.90;;;0.98;;
22287;SDS011;11312;51.464;6.968;2023-03-18T09:40:33;1.45;;;1.00;;
22287;SDS011;11312;51.464;6.968;2023-03-18T09:43:11;1.67;;;1.02;;
22287;SDS011;11312;51.464;6.968;2023-03-18T09:54:32;0.88;;;0.88;;
22287;SDS011;11312;51.464;6.968;2023-03-18T09:57:03;0.90;;;0.90;;
22287;SDS011;11312;51.464;6.968;2023-03-18T09:59:39;1.35;;;1.10;;
22287;SDS011;11312;51.464;6.968;2023-03-18T10:05:04;0.80;;;0.80;;
22287;SDS011;11312;51.464;6.968;2023-03-18T10:23:44;1.13;;;0.90;;
22287;SDS011;11312;51.464;6.968;2023-03-18T10:56:56;2.15;;;1.00;;
22287;SDS011;11312;51.464;6.968;2023-03-18T10:59:22;1.23;;;0.88;;
22287;SDS011;11312;51.464;6.968;2023-03-18T11:02:35;0.75;;;0.70;;
22287;SDS011;11312;51.464;6.968;2023-03-18T11:04:46;1.42;;;0.90;;
22287;SDS011;11312;51.464;6.968;2023-03-18T11:07:19;0.65;;;0.57;;
22287;SDS011;11312;51.464;6.968;2023-03-18T11:09:50;1.27;;;0.70;;
22287;SDS011;11312;51.464;6.968;2023-03-18T11:12:17;0.17;;;0.17;;
22287;SDS011;11312;51.464;6.968;2023-03-18T11:14:49;0.20;;;0.20;;
22287;SDS011;11312;51.464;6.968;2023-03-18T11:17:33;0.28;;;0.20;;
22287;SDS011;11312;51.464;6.968;2023-03-18T11:20:05;2.08;;;0.65;;
22287;SDS011;11312;51.464;6.968;2023-03-18T11:22:43;0.70;;;0.30;;
22287;SDS011;11312;51.464;6.968;2023-03-18T11:27:38;2.70;;;0.70;;
22287;SDS011;11312;51.464;6.968;2023-03-18T11:30:16;0.75;;;0.30;;
22287;SDS011;11312;51.464;6.968;2023-03-18T11:32:56;0.63;;;0.30;;
22287;SDS011;11312;51.464;6.968;2023-03-18T11:35:45;0.20;;;0.20;;
22287;SDS011;11312;51.464;6.968;2023-03-18T11:38:25;0.20;;;0.20;;
22287;SDS011;11312;51.464;6.968;2023-03-18T11:41:14;0.10;;;0.10;;
22287;SDS011;11312;51.464;6.968;2023-03-18T11:43:56;1.75;;;0.47;;
22287;SDS011;11312;51.464;6.968;2023-03-18T11:46:29;0.28;;;0.10;;
22287;SDS011;11312;51.464;6.968;2023-03-18T11:49:00;0.50;;;0.22;;
22287;SDS011;11312;51.464;6.968;2023-03-18T11:51:32;0.30;;;0.10;;
22287;SDS011;11312;51.464;6.968;2023-03-18T12:04:05;0.00;;;0.00;;
22287;SDS011;11312;51.464;6.968;2023-03-18T12:15:08;0.28;;;0.10;;
22287;SDS011;11312;51.464;6.968;2023-03-18T12:17:52;0.10;;;0.10;;
22287;SDS011;11312;51.464;6.968;2023-03-18T12:25:36;0.65;;;0.20;;
22287;SDS011;11312;51.464;6.968;2023-03-18T12:33:33;0.40;;;0.20;;
22287;SDS011;11312;51.464;6.968;2023-03-18T12:36:16;0.73;;;0.22;;
22287;SDS011;11312;51.464;6.968;2023-03-18T13:31:51;1.40;;;0.90;;
22287;SDS011;11312;51.464;6.968;2023-03-18T13:34:42;1.00;;;0.82;;
22287;SDS011;11312;51.464;6.968;2023-03-18T13:37:25;2.92;;;1.45;;
22287;SDS011;11312;51.464;6.968;2023-03-18T13:43:13;1.75;;;0.80;;
22287;SDS011;11312;51.464;6.968;2023-03-18T13:45:44;2.00;;;0.90;;
22287;SDS011;11312;51.464;6.968;2023-03-18T13:48:12;0.70;;;0.70;;
22287;SDS011;11312;51.464;6.968;2023-03-18T13:50:49;0.80;;;0.80;;
22287;SDS011;11312;51.464;6.968;2023-03-18T13:58:27;1.13;;;0.95;;
22287;SDS011;11312;51.464;6.968;2023-03-18T14:11:54;1.23;;;1.00;;
22287;SDS011;11312;51.464;6.968;2023-03-18T14:14:52;0.85;;;0.85;;
22287;SDS011;11312;51.464;6.968;2023-03-18T14:17:42;0.98;;;0.90;;
22287;SDS011;11312;51.464;6.968;2023-03-18T14:22:41;1.23;;;1.00;;
22287;SDS011;11312;51.464;6.968;2023-03-18T14:25:19;1.05;;;0.98;;
22287;SDS011;11312;51.464;6.968;2023-03-18T14:33:00;1.13;;;1.00;;
22287;SDS011;11312;51.464;6.968;2023-03-18T14:35:55;2.55;;;1.20;;
22287;SDS011;11312;51.464;6.968;2023-03-18T14:38:48;2.15;;;1.20;;
22287;SDS011;11312;51.464;6.968;2023-03-18T14:41:24;1.10;;;1.00;;
22287;SDS011;11312;51.464;6.968;2023-03-18T14:46:28;1.20;;;1.10;;
22287;SDS011;11312;51.464;6.968;2023-03-18T14:48:58;2.03;;;1.38;;
22287;SDS011;11312;51.464;6.968;2023-03-18T14:51:25;1.23;;;1.13;;
22287;SDS011;11312;51.464;6.968;2023-03-18T14:58:53;1.77;;;1.25;;
22287;SDS011;11312;51.464;6.968;2023-03-18T15:01:24;2.08;;;1.20;;
22287;SDS011;11312;51.464;6.968;2023-03-18T15:03:58;1.00;;;1.00;;
22287;SDS011;11312;51.464;6.968;2023-03-18T15:06:25;2.13;;;1.33;;
22287;SDS011;11312;51.464;6.968;2023-03-18T15:08:59;1.80;;;1.20;;
22287;SDS011;11312;51.464;6.968;2023-03-18T15:11:29;1.70;;;1.20;;
22287;SDS011;11312;51.464;6.968;2023-03-18T15:14:01;1.65;;;1.13;;
22287;SDS011;11312;51.464;6.968;2023-03-18T15:16:27;2.08;;;1.20;;
22287;SDS011;11312;51.464;6.968;2023-03-18T15:18:56;1.77;;;1.40;;
22287;SDS011;11312;51.464;6.968;2023-03-18T17:25:56;1.95;;;1.30;;
22287;SDS011;11312;51.464;6.968;2023-03-18T17:57:53;8.65;;;2.08;;
22287;SDS011;11312;51.464;6.968;2023-03-18T18:00:21;5.60;;;2.13;;
22287;SDS011;11312;51.464;6.968;2023-03-18T18:02:50;4.53;;;1.83;;
22287;SDS011;11312;51.464;6.968;2023-03-18T18:05:19;2.55;;;1.40;;
22287;SDS011;11312;51.464;6.968;2023-03-18T18:07:46;3.08;;;1.75;;
22287;SDS011;11312;51.464;6.968;2023-03-18T18:10:13;3.92;;;1.92;;
22287;SDS011;11312;51.464;6.968;2023-03-18T18:12:41;4.45;;;2.05;;
22287;SDS011;11312;51.464;6.968;2023-03-18T18:15:18;3.05;;;1.55;;
22287;SDS011;11312;51.464;6.968;2023-03-18T18:17:45;2.22;;;1.38;;
22287;SDS011;11312;51.464;6.968;2023-03-18T18:20:13;1.95;;;1.27;;
22287;SDS011;11312;51.464;6.968;2023-03-18T18:22:46;5.55;;;1.90;;
22287;SDS011;11312;51.464;6.968;2023-03-18T18:25:16;3.92;;;1.85;;
22287;SDS011;11312;51.464;6.968;2023-03-18T18:27:50;3.38;;;1.63;;
22287;SDS011;11312;51.464;6.968;2023-03-18T18:30:17;3.85;;;1.73;;
22287;SDS011;11312;51.464;6.968;2023-03-18T18:32:46;3.20;;;1.50;;
22287;SDS011;11312;51.464;6.968;2023-03-18T18:35:16;9.65;;;3.22;;
22287;SDS011;11312;51.464;6.968;2023-03-18T18:37:43;3.50;;;1.67;;
22287;SDS011;11312;51.464;6.968;2023-03-18T18:40:10;4.43;;;2.10;;
22287;SDS011;11312;51.464;6.968;2023-03-18T18:42:38;1.90;;;1.30;;
22287;SDS011;11312;51.464;6.968;2023-03-18T18:45:05;3.20;;;1.60;;
22287;SDS011;11312;51.464;6.968;2023-03-18T18:47:33;3.17;;;1.75;;
22287;SDS011;11312;51.464;6.968;2023-03-18T18:50:01;5.22;;;2.22;;
22287;SDS011;11312;51.464;6.968;2023-03-18T18:52:27;3.95;;;1.77;;
22287;SDS011;11312;51.464;6.968;2023-03-18T18:54:53;4.50;;;1.77;;
22287;SDS011;11312;51.464;6.968;2023-03-18T18:57:26;3.90;;;1.65;;
22287;SDS011;11312;51.464;6.968;2023-03-18T18:59:53;18.58;;;3.20;;
22287;SDS011;11312;51.464;6.968;2023-03-18T19:04:51;4.03;;;1.85;;
22287;SDS011;11312;51.464;6.968;2023-03-18T19:07:17;9.35;;;2.08;;
22287;SDS011;11312;51.464;6.968;2023-03-18T19:09:45;4.63;;;2.05;;
22287;SDS011;11312;51.464;6.968;2023-03-18T19:12:14;4.85;;;1.83;;
22287;SDS011;11312;51.464;6.968;2023-03-18T19:14:40;6.53;;;2.20;;
22287;SDS011;11312;51.464;6.968;2023-03-18T19:17:19;25.38;;;2.20;;
22287;SDS011;11312;51.464;6.968;2023-03-18T19:19:46;4.30;;;1.83;;
22287;SDS011;11312;51.464;6.968;2023-03-18T19:22:14;5.53;;;2.67;;
22287;SDS011;11312;51.464;6.968;2023-03-18T19:24:41;3.33;;;1.65;;
22287;SDS011;11312;51.464;6.968;2023-03-18T19:29:52;4.85;;;2.17;;
22287;SDS011;11312;51.464;6.968;2023-03-18T19:32:25;5.97;;;2.35;;
22287;SDS011;11312;51.464;6.968;2023-03-18T19:34:51;4.47;;;2.05;;
22287;SDS011;11312;51.464;6.968;2023-03-18T19:37:28;4.90;;;2.40;;
22287;SDS011;11312;51.464;6.968;2023-03-18T19:39:56;4.47;;;1.85;;
22287;SDS011;11312;51.464;6.968;2023-03-18T19:42:23;8.63;;;2.33;;
22287;SDS011;11312;51.464;6.968;2023-03-18T19:44:48;7.22;;;2.65;;
22287;SDS011;11312;51.464;6.968;2023-03-18T19:47:24;3.53;;;1.60;;
22287;SDS011;11312;51.464;6.968;2023-03-18T19:49:52;4.63;;;2.17;;
22287;SDS011;11312;51.464;6.968;2023-03-18T19:52:22;5.57;;;2.22;;
22287;SDS011;11312;51.464;6.968;2023-03-18T19:54:52;1.95;;;1.38;;
22287;SDS011;11312;51.464;6.968;2023-03-18T19:57:22;6.38;;;2.28;;
22287;SDS011;11312;51.464;6.968;2023-03-18T19:59:51;2.22;;;1.42;;
22287;SDS011;11312;51.464;6.968;2023-03-18T20:02:20;5.88;;;2.47;;
22287;SDS011;11312;51.464;6.968;2023-03-18T20:04:50;3.35;;;1.60;;
22287;SDS011;11312;51.464;6.968;2023-03-18T20:07:17;4.60;;;1.80;;
22287;SDS011;11312;51.464;6.968;2023-03-18T20:09:44;2.83;;;1.55;;
22287;SDS011;11312;51.464;6.968;2023-03-18T20:12:19;3.47;;;1.70;;
22287;SDS011;11312;51.464;6.968;2023-03-18T20:14:48;4.13;;;1.75;;
22287;SDS011;11312;51.464;6.968;2023-03-18T20:17:25;3.22;;;1.50;;
22287;SDS011;11312;51.464;6.968;2023-03-18T20:20:02;2.92;;;1.70;;
22287;SDS011;11312;51.464;6.968;2023-03-18T20:22:29;3.70;;;1.73;;
22287;SDS011;11312;51.464;6.968;2023-03-18T20:24:57;4.63;;;1.60;;
22287;SDS011;11312;51.464;6.968;2023-03-18T20:27:24;2.78;;;1.70;;
22287;SDS011;11312;51.464;6.968;2023-03-18T20:29:50;2.10;;;1.40;;
22287;SDS011;11312;51.464;6.968;2023-03-18T20:32:16;2.08;;;1.40;;
22287;SDS011;11312;51.464;6.968;2023-03-18T20:34:41;3.90;;;1.77;;
22287;SDS011;11312;51.464;6.968;2023-03-18T20:37:18;2.60;;;1.65;;
22287;SDS011;11312;51.464;6.968;2023-03-18T20:39:53;3.60;;;1.73;;
22287;SDS011;11312;51.464;6.968;2023-03-18T20:42:19;1.75;;;1.27;;
22287;SDS011;11312;51.464;6.968;2023-03-18T20:44:45;2.28;;;1.40;;
22287;SDS011;11312;51.464;6.968;2023-03-18T20:47:11;3.65;;;1.88;;
22287;SDS011;11312;51.464;6.968;2023-03-18T20:49:40;2.25;;;1.45;;
22287;SDS011;11312;51.464;6.968;2023-03-18T20:55:25;1.75;;;1.30;;
22287;SDS011;11312;51.464;6.968;2023-03-18T20:57:56;1.60;;;1.30;;
22287;SDS011;11312;51.464;6.968;2023-03-18T21:00:24;2.25;;;1.40;;